Time;durP1;ratioP1;P1;durP2;ratioP2;P2;SDS_P1;SDS_P2;PMS_P1;PMS_P2;Temp;Humidity;BMP_temperature;BMP_pressure;BME280_temperature;BME280_humidity;BME280_pressure;Samples;Min_cycle;Max_cycle;Signal;HPM_P1;HPM_P2
2023/02/02 00:00:51;;;;;;;11.13;1.05;;;;;;;2.58;51.99;101474.47;4982423;28;20038;-76
2023/02/02 00:03:17;;;;;;;8.20;1.55;;;;;;;2.21;52.73;101466.59;4978451;28;20042;-77
2023/02/02 00:05:51;;;;;;;8.82;1.23;;;;;;;2.17;53.37;101472.56;4981224;28;20042;-77
2023/02/02 00:08:18;;;;;;;15.25;2.50;;;;;;;2.75;52.20;101472.78;4979460;28;20142;-76
2023/02/02 00:10:45;;;;;;;15.10;1.50;;;;;;;2.86;52.42;101479.69;4980410;28;20117;-76
2023/02/02 00:13:11;;;;;;;15.02;1.77;;;;;;;2.72;52.51;101477.94;4977449;28;20042;-78
2023/02/02 00:15:37;;;;;;;13.88;1.58;;;;;;;2.72;52.78;101483.09;4978279;28;20037;-78
2023/02/02 00:18:03;;;;;;;24.45;2.92;;;;;;;2.63;52.63;101485.66;4980983;28;20049;-77
2023/02/02 00:20:29;;;;;;;14.75;1.27;;;;;;;2.74;51.91;101478.81;4980240;28;20045;-77
2023/02/02 00:22:55;;;;;;;11.90;2.00;;;;;;;2.89;51.29;101490.00;4979330;28;20046;-77
2023/02/02 00:25:21;;;;;;;21.17;3.10;;;;;;;3.05;50.79;101481.44;4979316;28;20619;-76
2023/02/02 00:27:46;;;;;;;20.05;2.72;;;;;;;3.06;51.08;101484.88;4979651;28;20076;-77
2023/02/02 00:30:12;;;;;;;22.38;2.13;;;;;;;2.72;51.87;101493.44;4980068;28;20105;-76
2023/02/02 00:32:39;;;;;;;25.90;2.80;;;;;;;3.27;50.35;101500.41;4977597;28;20072;-78
2023/02/02 00:35:06;;;;;;;20.60;2.17;;;;;;;2.89;51.33;101510.66;4980763;28;20030;-77
2023/02/02 00:37:31;;;;;;;17.83;2.38;;;;;;;3.00;51.52;101503.81;4980301;28;20088;-77
2023/02/02 00:39:57;;;;;;;17.98;2.42;;;;;;;2.79;51.85;101514.09;4979942;28;20038;-78
2023/02/02 00:42:22;;;;;;;17.92;2.05;;;;;;;3.03;51.53;101509.00;4977908;28;20086;-77
2023/02/02 00:47:32;;;;;;;16.80;2.00;;;;;;;3.54;50.07;101514.22;4976084;28;20038;-78
2023/02/02 00:49:58;;;;;;;23.38;3.55;;;;;;;3.03;51.07;101509.00;4977591;28;20049;-78
2023/02/02 00:52:23;;;;;;;23.17;1.88;;;;;;;3.29;50.62;101510.75;4976677;28;20038;-77
2023/02/02 00:54:49;;;;;;;18.83;2.13;;;;;;;3.25;50.32;101519.31;4979011;28;20630;-77
2023/02/02 00:57:14;;;;;;;22.23;2.53;;;;;;;3.17;50.81;101517.59;4983229;28;20750;-79
2023/02/02 00:59:41;;;;;;;22.52;1.90;;;;;;;3.13;50.87;101515.88;4982750;28;20045;-78
2023/02/02 01:02:08;;;;;;;22.27;2.03;;;;;;;3.03;50.80;101528.78;4985333;28;20058;-78
2023/02/02 01:04:34;;;;;;;19.60;1.88;;;;;;;3.49;49.59;101523.69;4983912;28;20505;-77
2023/02/02 01:06:59;;;;;;;19.48;2.50;;;;;;;3.42;49.83;101522.81;4984114;28;20097;-76
2023/02/02 01:09:25;;;;;;;28.23;2.97;;;;;;;2.87;51.04;101527.91;4983720;28;20100;-79
2023/02/02 01:11:50;;;;;;;21.05;1.85;;;;;;;2.74;51.34;101522.69;4983531;28;20038;-79
2023/02/02 01:14:16;;;;;;;28.77;3.78;;;;;;;3.06;50.18;101519.31;4983079;28;20053;-77
2023/02/02 01:16:41;;;;;;;16.63;2.08;;;;;;;3.16;50.03;101526.22;4983196;28;20536;-77
2023/02/02 01:19:07;;;;;;;22.00;2.45;;;;;;;3.10;50.37;101523.63;4983185;28;20073;-78
2023/02/02 01:21:33;;;;;;;16.90;1.88;;;;;;;2.95;50.91;101523.59;4981507;28;20073;-78
2023/02/02 01:23:59;;;;;;;34.30;3.33;;;;;;;2.63;51.90;101526.97;4983056;28;20514;-77
2023/02/02 01:26:25;;;;;;;19.92;1.63;;;;;;;2.95;51.33;101542.53;4982260;28;20484;-78
2023/02/02 01:28:51;;;;;;;22.80;1.88;;;;;;;3.09;50.42;101546.88;4983310;28;20114;-77
2023/02/02 01:31:18;;;;;;;12.00;1.83;;;;;;;2.84;50.45;101545.94;4983621;28;20126;-78
2023/02/02 01:33:45;;;;;;;16.08;1.02;;;;;;;2.94;49.98;101551.16;4981963;28;20622;-77
2023/02/02 01:36:14;;;;;;;13.57;1.08;;;;;;;2.82;50.03;101550.25;4984484;28;20192;-78
2023/02/02 01:38:41;;;;;;;14.90;1.17;;;;;;;2.77;50.10;101538.19;4982057;28;20499;-78
2023/02/02 01:41:10;;;;;;;11.45;1.40;;;;;;;2.84;50.15;101551.09;4983840;28;20455;-76
2023/02/02 01:43:42;;;;;;;9.88;0.50;;;;;;;2.55;50.91;101551.88;4980133;28;20038;-77
2023/02/02 01:46:14;;;;;;;4.38;0.70;;;;;;;2.58;50.79;101559.63;4985235;28;20069;-77
2023/02/02 01:48:40;;;;;;;;;;;;;;;2.48;50.90;101557.84;4981490;28;20136;-76
2023/02/02 01:51:11;;;;;;;17.85;1.52;;;;;;;2.87;50.29;101553.72;4982200;28;19917;-78
2023/02/02 01:53:37;;;;;;;11.98;1.02;;;;;;;2.81;50.72;101561.44;4980545;28;20046;-76
2023/02/02 01:56:05;;;;;;;25.35;1.10;;;;;;;2.66;50.98;101560.50;4984341;28;20041;-77
2023/02/02 01:58:36;;;;;;;16.23;1.05;;;;;;;2.94;50.32;101566.66;4978958;28;20045;-77
2023/02/02 02:01:01;;;;;;;18.70;1.73;;;;;;;2.90;50.71;101569.22;4982881;28;20026;-76
2023/02/02 02:03:30;;;;;;;12.50;1.35;;;;;;;2.91;50.76;101570.91;4979599;28;20045;-77
2023/02/02 02:05:58;;;;;;;17.17;2.65;;;;;;;2.52;51.86;101578.53;4983536;28;20263;-78
2023/02/02 02:08:36;;;;;;;17.40;2.80;;;;;;;2.20;52.76;101580.94;4979360;28;20088;-79
2023/02/02 02:11:02;;;;;;;18.60;1.90;;;;;;;2.46;51.97;101575.06;4985364;28;20878;-76
2023/02/02 02:16:51;;;;;;;18.20;1.88;;;;;;;3.05;51.00;101582.16;4982279;28;20054;-78
2023/02/02 02:28:39;;;;;;;16.60;1.67;;;;;;;3.28;50.35;101594.28;4981645;28;20622;-77
2023/02/02 02:31:30;;;;;;;16.08;2.60;;;;;;;3.32;49.95;101589.16;4983352;28;20112;-78
2023/02/02 02:34:09;;;;;;;10.43;1.20;;;;;;;3.34;49.97;101592.59;4980010;28;20397;-78
2023/02/02 02:36:46;;;;;;;17.08;1.58;;;;;;;3.28;50.35;101595.13;4983102;28;20116;-76
2023/02/02 02:39:26;;;;;;;28.75;1.63;;;;;;;3.71;49.08;101599.50;4980739;28;20042;-78
2023/02/02 02:41:57;;;;;;;29.85;2.17;;;;;;;3.47;49.74;101592.59;4980121;28;20455;-77
2023/02/02 02:44:25;;;;;;;23.88;1.75;;;;;;;3.53;49.84;101592.63;4981356;28;20031;-77
2023/02/02 02:46:51;;;;;;;15.77;1.48;;;;;;;3.37;50.10;101591.75;4980780;28;20492;-77
2023/02/02 02:49:18;;;;;;;30.92;2.63;;;;;;;3.05;51.17;101589.91;4983364;28;20396;-78
2023/02/02 02:51:49;;;;;;;26.52;2.33;;;;;;;3.51;50.19;101607.25;4983518;28;20026;-78
2023/02/02 02:54:39;;;;;;;20.48;1.95;;;;;;;3.35;50.47;101598.63;4980575;28;20041;-77
2023/02/02 02:57:31;;;;;;;24.45;2.40;;;;;;;3.37;50.58;101607.25;4981117;28;20045;-77
2023/02/02 03:00:34;;;;;;;20.95;1.75;;;;;;;3.45;50.50;101608.13;4982929;28;20120;-78
2023/02/02 03:03:12;;;;;;;14.05;1.25;;;;;;;3.41;50.30;101614.16;4982683;28;20042;-78
2023/02/02 03:05:45;;;;;;;23.38;2.67;;;;;;;3.45;50.63;101621.06;4962630;28;20121;-79
2023/02/02 03:08:16;;;;;;;10.23;2.17;;;;;;;3.27;50.89;101611.50;4981263;28;20038;-78
2023/02/02 03:10:44;;;;;;;28.55;2.83;;;;;;;3.32;51.19;101615.00;4980766;28;20165;-77
2023/02/02 03:13:12;;;;;;;17.15;1.98;;;;;;;3.43;50.77;101621.91;4981203;28;20034;-77
2023/02/02 03:15:42;;;;;;;16.92;1.05;;;;;;;3.10;51.55;101626.94;4977705;28;20833;-76
2023/02/02 03:18:08;;;;;;;24.80;2.30;;;;;;;3.34;51.26;101622.75;4981853;28;20033;-78
2023/02/02 03:20:34;;;;;;;14.65;1.83;;;;;;;3.35;51.02;101620.16;4978671;28;20031;-78
2023/02/02 03:23:00;;;;;;;19.60;2.25;;;;;;;3.43;50.82;101622.75;4980868;28;20039;-77
2023/02/02 03:25:25;;;;;;;14.10;2.65;;;;;;;3.27;51.09;101627.00;4980517;28;20447;-77
2023/02/02 03:27:51;;;;;;;15.95;1.98;;;;;;;2.99;51.89;101623.47;4981412;28;20052;-77
2023/02/02 03:30:18;;;;;;;12.80;2.17;;;;;;;3.26;51.37;101622.69;4980259;28;20030;-79
2023/02/02 03:32:45;;;;;;;22.60;2.08;;;;;;;3.14;51.58;101620.94;4981810;28;20073;-77
2023/02/02 03:35:10;;;;;;;32.03;3.17;;;;;;;3.24;50.98;101619.22;4982824;28;20041;-78
2023/02/02 03:37:36;;;;;;;20.48;2.72;;;;;;;3.50;50.37;101621.06;4980655;28;20038;-78
2023/02/02 03:40:02;;;;;;;18.73;2.83;;;;;;;3.27;51.04;101629.59;4980971;28;20034;-78
2023/02/02 03:42:27;;;;;;;16.98;1.98;;;;;;;3.03;51.51;101638.13;4981045;28;20070;-77
2023/02/02 03:44:53;;;;;;;19.73;1.95;;;;;;;3.27;50.99;101629.59;4980677;28;20068;-76
2023/02/02 03:47:18;;;;;;;15.73;2.53;;;;;;;3.33;50.28;101634.78;4980203;28;20673;-78
2023/02/02 03:49:44;;;;;;;19.27;1.67;;;;;;;3.40;50.14;101638.25;4980618;28;20449;-78
2023/02/02 03:52:09;;;;;;;9.60;1.40;;;;;;;3.41;50.30;101640.00;4962678;28;21766;-76
2023/02/02 03:54:35;;;;;;;14.07;1.45;;;;;;;3.12;50.86;101647.63;4978483;28;20687;-77
2023/02/02 03:57:00;;;;;;;17.70;1.52;;;;;;;3.13;51.44;101650.19;4980519;28;20034;-77
2023/02/02 03:59:26;;;;;;;20.60;1.48;;;;;;;2.81;53.21;101659.56;4979983;28;20822;-77
2023/02/02 04:01:51;;;;;;;20.42;1.70;;;;;;;2.69;53.83;101656.06;4981864;28;20626;-77
2023/02/02 04:04:16;;;;;;;22.30;2.08;;;;;;;2.97;53.98;101658.75;4983158;28;20561;-76
2023/02/02 04:06:42;;;;;;;18.48;3.13;;;;;;;3.06;53.25;101669.13;4965462;28;20560;-77
2023/02/02 04:09:07;;;;;;;12.07;1.60;;;;;;;3.14;53.17;101664.84;4983424;28;20034;-76
2023/02/02 04:11:33;;;;;;;23.02;2.55;;;;;;;2.89;53.72;101663.91;4979500;28;20053;-78
2023/02/02 04:13:58;;;;;;;18.90;2.05;;;;;;;2.98;53.22;101668.25;4984221;28;20042;-78
2023/02/02 04:16:24;;;;;;;11.10;1.58;;;;;;;2.99;52.87;101667.38;4982980;28;20034;-76
2023/02/02 04:18:49;;;;;;;19.70;2.05;;;;;;;2.72;53.51;101675.84;4983108;28;20053;-77
2023/02/02 04:21:15;;;;;;;16.00;2.42;;;;;;;3.00;52.55;101668.22;4981037;28;20184;-79
2023/02/02 04:23:40;;;;;;;12.93;1.40;;;;;;;2.90;52.44;101670.78;4980554;28;20042;-78
2023/02/02 04:26:06;;;;;;;14.10;2.00;;;;;;;2.90;52.40;101675.09;4981814;28;20045;-77
2023/02/02 04:28:31;;;;;;;18.85;2.78;;;;;;;2.99;52.02;101672.53;4982203;28;20042;-76
2023/02/02 04:30:57;;;;;;;33.60;2.78;;;;;;;3.05;51.54;101685.50;4965446;28;20073;-77
2023/02/02 04:33:24;;;;;;;16.90;1.63;;;;;;;3.11;51.29;101674.31;4981080;28;20039;-79
2023/02/02 04:35:50;;;;;;;21.70;3.05;;;;;;;2.66;52.83;101679.25;4982769;28;20136;-78
2023/02/02 04:38:15;;;;;;;16.67;1.33;;;;;;;2.82;52.47;101684.50;4980523;28;20125;-78
2023/02/02 04:40:43;;;;;;;20.58;2.10;;;;;;;3.05;51.51;101680.31;4980259;28;20034;-78
2023/02/02 04:43:09;;;;;;;19.27;2.15;;;;;;;2.98;51.98;101686.31;4979872;28;20074;-77
2023/02/02 04:45:35;;;;;;;8.50;1.13;;;;;;;2.89;51.80;101686.25;4980220;28;20043;-79
2023/02/02 04:48:01;;;;;;;18.02;2.05;;;;;;;2.97;51.95;101685.44;4965431;28;20046;-79
2023/02/02 04:50:27;;;;;;;7.68;1.45;;;;;;;3.03;51.51;101694.94;4978724;28;20038;-76
2023/02/02 04:52:52;;;;;;;20.73;2.25;;;;;;;2.77;52.46;101690.50;4977490;28;20101;-78
2023/02/02 04:55:18;;;;;;;19.15;1.98;;;;;;;2.84;52.52;101701.72;4978613;28;20026;-77
2023/02/02 04:57:43;;;;;;;19.05;1.70;;;;;;;2.98;51.86;101694.94;4978810;28;20050;-79
2023/02/02 05:00:10;;;;;;;19.40;1.70;;;;;;;2.59;52.89;101689.53;4981540;28;20038;-77
2023/02/02 05:02:37;;;;;;;26.20;1.95;;;;;;;3.07;51.52;101695.81;4978748;28;20054;-77
2023/02/02 05:05:04;;;;;;;10.50;1.35;;;;;;;2.74;52.36;101692.22;4978317;28;20052;-78
2023/02/02 05:07:30;;;;;;;24.60;2.28;;;;;;;2.91;51.91;101698.34;4978614;28;20042;-77
2023/02/02 05:09:55;;;;;;;12.05;1.45;;;;;;;2.67;52.77;101699.06;4980085;28;20034;-77
2023/02/02 05:12:20;;;;;;;23.33;1.55;;;;;;;2.88;51.94;101705.19;4976276;28;20046;-78
2023/02/02 05:14:46;;;;;;;34.95;2.50;;;;;;;2.67;52.70;101706.81;4980827;28;20042;-79
2023/02/02 05:17:11;;;;;;;10.80;1.25;;;;;;;2.62;52.64;101712.78;4979193;28;20034;-78
2023/02/02 05:19:37;;;;;;;20.77;1.95;;;;;;;2.69;52.37;101709.38;4978476;28;20058;-77
2023/02/02 05:22:02;;;;;;;20.13;1.45;;;;;;;2.84;51.91;101709.47;4978640;28;20707;-78
2023/02/02 05:24:28;;;;;;;18.73;1.52;;;;;;;2.71;52.69;101708.56;4961084;28;20228;-78
2023/02/02 05:26:57;;;;;;;13.93;1.35;;;;;;;2.70;52.16;101713.69;4976137;28;20100;-79
2023/02/02 05:29:23;;;;;;;18.80;1.80;;;;;;;2.85;52.12;101718.09;4978331;28;20062;-78
2023/02/02 05:31:49;;;;;;;18.73;1.75;;;;;;;2.83;52.03;101720.66;4977625;28;20540;-77
2023/02/02 05:34:15;;;;;;;11.50;2.00;;;;;;;3.04;51.49;101716.47;4978525;28;20053;-78
2023/02/02 05:36:40;;;;;;;18.75;1.73;;;;;;;2.96;51.65;101719.03;4962583;28;20400;-78
2023/02/02 05:39:06;;;;;;;12.18;2.20;;;;;;;3.02;51.40;101723.34;4979155;28;20423;-77
2023/02/02 05:41:31;;;;;;;18.80;1.98;;;;;;;2.70;52.13;101726.59;4981768;28;20019;-78
2023/02/02 05:44:00;;;;;;;22.55;1.23;;;;;;;3.04;51.05;101722.47;4981685;28;20546;-77
2023/02/02 05:46:26;;;;;;;17.15;2.03;;;;;;;3.13;50.90;101716.50;4965602;28;20034;-78
2023/02/02 05:48:51;;;;;;;20.42;2.53;;;;;;;3.14;50.51;101731.16;4982054;28;20092;-79
2023/02/02 05:51:41;;;;;;;17.45;1.58;;;;;;;3.14;50.67;101729.44;4984367;28;20038;-78
2023/02/02 05:54:06;;;;;;;17.67;2.33;;;;;;;3.00;51.20;101738.81;4979201;28;20128;-77
2023/02/02 05:56:32;;;;;;;15.00;0.98;;;;;;;3.06;50.70;101740.59;4981459;28;20810;-77
2023/02/02 05:58:58;;;;;;;10.30;1.90;;;;;;;2.99;51.22;101744.84;4980266;28;20050;-80
2023/02/02 06:01:24;;;;;;;14.68;2.33;;;;;;;2.73;52.07;101747.25;4979819;28;20121;-78
2023/02/02 06:03:50;;;;;;;14.00;1.73;;;;;;;2.97;51.57;101742.25;4979494;28;20133;-78
2023/02/02 06:06:15;;;;;;;20.15;1.73;;;;;;;3.03;50.83;101751.75;4984267;28;20040;-78
2023/02/02 06:08:41;;;;;;;27.08;2.67;;;;;;;3.05;50.86;101755.22;4980105;28;20042;-78
2023/02/02 06:11:11;;;;;;;22.67;1.67;;;;;;;3.03;51.15;101756.06;4981605;28;20054;-78
2023/02/02 06:13:37;;;;;;;16.52;1.60;;;;;;;2.69;52.34;101750.66;4979666;28;20046;-78
2023/02/02 06:16:03;;;;;;;10.52;0.75;;;;;;;2.90;51.88;101749.97;4981983;28;20045;-79
2023/02/02 06:18:29;;;;;;;23.38;1.00;;;;;;;2.87;51.75;101757.72;4979954;28;20046;-77
2023/02/02 06:20:58;;;;;;;21.88;2.45;;;;;;;3.07;51.06;101760.38;4981362;28;20022;-80
2023/02/02 06:23:23;;;;;;;19.77;2.50;;;;;;;2.98;51.16;101761.22;4979901;28;20035;-77
2023/02/02 06:25:49;;;;;;;20.40;2.30;;;;;;;2.88;51.82;101762.00;4982995;28;20099;-77
2023/02/02 06:28:14;;;;;;;16.63;2.72;;;;;;;2.65;52.39;101765.28;4981312;28;20030;-79
2023/02/02 06:30:40;;;;;;;24.48;1.52;;;;;;;3.07;50.98;101769.00;4964429;28;20042;-78
2023/02/02 06:33:06;;;;;;;12.00;1.55;;;;;;;2.96;51.99;101771.53;4963293;28;20053;-79
2023/02/02 06:35:32;;;;;;;14.48;2.55;;;;;;;2.92;52.03;101763.75;4981080;28;20034;-76
2023/02/02 06:37:58;;;;;;;14.73;1.58;;;;;;;3.04;51.19;101779.31;4982404;28;20433;-77
2023/02/02 06:40:24;;;;;;;18.52;1.42;;;;;;;2.96;51.77;101781.00;4981277;28;20042;-77
2023/02/02 06:43:01;;;;;;;13.10;1.73;;;;;;;2.93;51.95;101788.72;4980783;28;20046;-78
2023/02/02 06:45:29;;;;;;;9.70;1.50;;;;;;;2.99;51.57;101786.19;4981423;28;20041;-77
2023/02/02 06:47:59;;;;;;;13.73;1.38;;;;;;;2.99;52.09;101786.19;4977195;28;20046;-77
2023/02/02 06:50:25;;;;;;;9.50;0.93;;;;;;;3.02;51.75;101791.34;4980140;28;20436;-78
2023/02/02 06:52:51;;;;;;;18.52;2.72;;;;;;;3.01;51.52;101789.63;4979430;28;20047;-80
2023/02/02 06:55:18;;;;;;;11.88;1.17;;;;;;;2.97;51.71;101785.28;4980846;28;20034;-75
2023/02/02 06:57:45;;;;;;;26.35;3.10;;;;;;;2.96;52.17;101791.34;4978646;28;20038;-77
2023/02/02 07:00:11;;;;;;;23.05;2.08;;;;;;;2.73;52.86;101789.47;4983902;28;20030;-77
2023/02/02 07:02:36;;;;;;;15.57;1.88;;;;;;;2.91;52.48;101793.00;4977870;28;20097;-77
2023/02/02 07:05:04;;;;;;;18.77;1.05;;;;;;;2.99;51.73;101799.09;4982724;28;20034;-76
2023/02/02 07:07:34;;;;;;;30.13;3.05;;;;;;;2.92;52.30;101799.91;4981444;28;20117;-80
2023/02/02 07:10:00;;;;;;;19.27;1.45;;;;;;;2.85;52.42;101803.31;4982532;28;20051;-77
2023/02/02 07:12:26;;;;;;;14.00;2.08;;;;;;;3.06;51.72;101802.56;4979156;28;20196;-78
2023/02/02 07:14:52;;;;;;;23.15;1.83;;;;;;;2.89;52.34;101810.19;4981320;28;20034;-77
2023/02/02 07:17:18;;;;;;;29.13;1.88;;;;;;;3.04;51.92;101815.47;4980620;28;20039;-78
2023/02/02 07:19:44;;;;;;;18.38;1.15;;;;;;;2.92;51.96;101812.81;4981023;28;20500;-78
2023/02/02 07:22:10;;;;;;;20.27;2.75;;;;;;;2.92;52.22;101816.25;4982558;28;20124;-79
2023/02/02 07:24:38;;;;;;;18.25;2.00;;;;;;;2.87;52.63;101822.25;4980914;28;20496;-78
2023/02/02 07:27:04;;;;;;;21.65;3.80;;;;;;;3.13;52.17;101823.28;4982233;28;20072;-78
2023/02/02 07:29:29;;;;;;;16.20;1.27;;;;;;;3.31;51.76;101826.84;4980115;28;20065;-75
2023/02/02 07:31:55;;;;;;;25.10;2.35;;;;;;;3.41;51.35;101830.38;4980560;28;20062;-77
2023/02/02 07:34:21;;;;;;;26.05;2.30;;;;;;;3.29;52.01;101836.31;4979702;28;20041;-76
2023/02/02 07:36:46;;;;;;;13.82;2.13;;;;;;;3.31;51.56;101839.78;4982173;28;20045;-78
2023/02/02 07:39:12;;;;;;;18.55;1.98;;;;;;;3.03;52.15;101849.91;4982997;28;20034;-77
2023/02/02 07:41:38;;;;;;;26.67;2.08;;;;;;;2.95;52.32;101842.09;4981334;28;20040;-77
2023/02/02 07:44:16;;;;;;;15.50;1.70;;;;;;;3.06;52.25;101849.94;4985487;28;20038;-78
2023/02/02 07:46:46;;;;;;;22.25;2.50;;;;;;;3.38;50.71;101849.28;4984823;28;20034;-75
2023/02/02 07:49:13;;;;;;;19.75;1.08;;;;;;;3.35;51.27;101846.69;4965619;28;20050;-78
2023/02/02 07:51:40;;;;;;;14.25;1.50;;;;;;;3.27;51.10;101863.84;4978297;28;20030;-77
2023/02/02 07:54:05;;;;;;;10.40;1.10;;;;;;;3.16;51.40;101856.91;4961953;28;20042;-77
2023/02/02 07:56:31;;;;;;;17.35;1.52;;;;;;;3.53;50.66;101859.72;4976830;28;20060;-77
2023/02/02 07:58:57;;;;;;;20.63;1.73;;;;;;;3.66;50.25;101864.97;4977156;28;20048;-78
2023/02/02 08:01:24;;;;;;;23.65;1.42;;;;;;;3.59;50.09;101869.22;4980382;28;20074;-77
2023/02/02 08:03:52;;;;;;;14.07;1.33;;;;;;;3.64;50.51;101880.44;4977218;28;20065;-77
2023/02/02 08:06:21;;;;;;;19.20;2.08;;;;;;;3.72;50.18;101876.19;4975662;28;20551;-78
2023/02/02 08:08:46;;;;;;;7.30;1.30;;;;;;;3.89;49.76;101890.91;4975694;28;20073;-77
2023/02/02 08:11:14;;;;;;;11.80;1.63;;;;;;;3.76;49.97;101889.97;4966198;28;20267;-77
2023/02/02 08:13:41;;;;;;;16.77;1.90;;;;;;;3.90;50.13;101893.50;4977438;28;20046;-77
2023/02/02 08:16:07;;;;;;;16.70;1.40;;;;;;;3.96;49.77;101898.72;4980694;28;20113;-76
2023/02/02 08:18:33;;;;;;;19.98;2.00;;;;;;;3.95;49.93;101903.88;4979050;28;20125;-77
2023/02/02 08:21:00;;;;;;;14.35;1.35;;;;;;;3.88;50.06;101900.41;4981630;28;20026;-77
2023/02/02 08:23:27;;;;;;;12.82;1.13;;;;;;;4.16;49.46;101900.50;4979424;28;20038;-76
2023/02/02 08:25:53;;;;;;;13.45;1.83;;;;;;;4.51;48.92;101902.31;4985775;28;20034;-77
2023/02/02 08:28:18;;;;;;;11.52;1.23;;;;;;;4.71;48.28;101908.38;4981189;28;20050;-77
2023/02/02 08:30:44;;;;;;;19.20;3.15;;;;;;;4.69;47.82;101899.75;4982222;28;20046;-77
2023/02/02 08:33:10;;;;;;;29.48;2.88;;;;;;;4.91;47.75;101912.75;4981125;28;20041;-77
2023/02/02 08:35:42;;;;;;;13.00;1.92;;;;;;;5.05;47.24;101905.81;4980721;28;20042;-76
2023/02/02 08:38:08;;;;;;;21.80;2.08;;;;;;;5.03;47.45;101907.56;4979546;28;20034;-77
2023/02/02 08:40:34;;;;;;;23.95;2.55;;;;;;;4.93;47.03;101911.03;4978077;28;20057;-76
2023/02/02 08:42:59;;;;;;;18.52;1.85;;;;;;;4.83;47.61;101915.28;4960723;28;20795;-77
2023/02/02 08:45:25;;;;;;;20.40;2.05;;;;;;;4.94;47.86;101916.19;4979884;28;20523;-76
2023/02/02 08:47:50;;;;;;;20.20;2.50;;;;;;;4.60;48.01;101913.53;4978428;28;20361;-78
2023/02/02 08:50:17;;;;;;;21.60;2.25;;;;;;;4.53;48.18;101927.34;4978093;28;20045;-76
2023/02/02 08:52:43;;;;;;;16.75;2.53;;;;;;;4.68;48.37;101921.34;4977079;28;20085;-75
2023/02/02 08:55:08;;;;;;;13.60;1.20;;;;;;;4.66;48.47;101922.22;4978532;28;20061;-78
2023/02/02 08:57:34;;;;;;;26.88;2.13;;;;;;;4.88;47.73;101930.88;4976879;28;20046;-75
2023/02/02 08:59:59;;;;;;;19.25;2.40;;;;;;;5.00;47.65;101928.28;4978221;28;20080;-75
2023/02/02 09:02:25;;;;;;;29.15;3.65;;;;;;;5.02;47.75;101926.56;4976398;28;20066;-77
2023/02/02 09:04:50;;;;;;;15.07;1.85;;;;;;;5.36;47.47;101931.72;4976132;28;20431;-76
2023/02/02 09:07:16;;;;;;;23.63;2.90;;;;;;;5.86;46.78;101934.22;4976068;28;20042;-77
2023/02/02 09:09:41;;;;;;;13.73;2.58;;;;;;;6.34;45.77;101931.44;4977782;28;20044;-76
2023/02/02 09:12:07;;;;;;;20.55;1.95;;;;;;;6.01;45.19;101938.47;4978024;28;20049;-78
2023/02/02 09:14:32;;;;;;;26.40;1.90;;;;;;;6.41;45.43;101938.31;4979305;28;20036;-77
2023/02/02 09:16:57;;;;;;;19.95;1.08;;;;;;;6.26;44.74;101948.75;4980620;28;20763;-75
2023/02/02 09:19:23;;;;;;;14.35;1.85;;;;;;;6.52;44.50;101951.25;4981088;28;20789;-77
2023/02/02 09:21:49;;;;;;;23.48;2.38;;;;;;;6.36;44.66;101971.25;4979770;28;20042;-76
2023/02/02 09:24:15;;;;;;;16.13;2.10;;;;;;;6.81;43.98;101958.84;4982134;28;20038;-77
2023/02/02 09:26:42;;;;;;;10.82;1.17;;;;;;;7.12;43.79;101964.69;4980775;28;20034;-78
2023/02/02 09:29:12;;;;;;;16.02;1.75;;;;;;;7.41;42.67;101965.31;4981860;28;20213;-76
2023/02/02 09:31:38;;;;;;;11.90;1.83;;;;;;;7.27;42.37;101970.66;4980923;28;20041;-76
2023/02/02 09:34:05;;;;;;;14.82;1.85;;;;;;;7.14;42.64;101979.44;4979770;28;20042;-78
2023/02/02 09:36:31;;;;;;;23.98;2.85;;;;;;;7.07;43.57;101984.66;4982309;28;20041;-76
2023/02/02 09:38:57;;;;;;;19.08;1.48;;;;;;;7.11;43.18;101988.97;4980997;28;20121;-77
2023/02/02 09:41:38;;;;;;;12.30;1.70;;;;;;;7.26;43.40;101987.97;4979312;28;20053;-77
2023/02/02 09:44:36;;;;;;;11.70;1.20;;;;;;;7.73;41.97;101986.72;4981223;28;20046;-79
2023/02/02 09:47:17;;;;;;;6.60;1.77;;;;;;;7.88;42.16;101992.63;4980962;28;20034;-77
2023/02/02 09:49:52;;;;;;;12.20;1.30;;;;;;;7.69;42.29;101992.84;4979648;28;20047;-77
2023/02/02 09:52:25;;;;;;;17.58;1.65;;;;;;;7.82;42.22;101990.09;4978615;28;20558;-77
2023/02/02 09:54:57;;;;;;;15.23;2.25;;;;;;;8.48;41.46;101995.38;4978530;28;20042;-77
2023/02/02 09:57:27;;;;;;;21.70;3.30;;;;;;;8.59;42.01;101999.59;4979657;28;20515;-76
2023/02/02 09:59:53;;;;;;;23.98;2.17;;;;;;;8.82;40.96;102000.16;4981847;28;20842;-76
2023/02/02 10:02:32;;;;;;;23.70;2.00;;;;;;;8.39;41.87;102005.91;4982338;28;20050;-76
2023/02/02 10:05:19;;;;;;;19.60;2.60;;;;;;;7.78;42.37;102007.50;4980762;28;20053;-77
2023/02/02 10:07:50;;;;;;;19.60;2.15;;;;;;;7.67;42.88;102010.19;4979089;28;20049;-77
2023/02/02 10:10:25;;;;;;;18.23;1.77;;;;;;;7.27;43.89;102015.72;4979895;28;20040;-77
2023/02/02 10:13:12;;;;;;;13.90;1.25;;;;;;;7.20;44.73;102019.25;4978327;28;20049;-76
2023/02/02 10:15:49;;;;;;;15.60;1.73;;;;;;;7.56;44.04;102019.84;4981408;28;20045;-75
2023/02/02 10:18:48;;;;;;;13.10;1.73;;;;;;;8.14;43.11;102021.84;4979015;28;20104;-77
2023/02/02 10:21:57;;;;;;;17.33;2.10;;;;;;;8.44;42.77;102032.78;4980654;28;20057;-77
2023/02/02 10:24:25;;;;;;;16.55;1.85;;;;;;;8.96;41.84;102033.81;4957545;28;20050;-78
2023/02/02 10:27:04;;;;;;;19.30;1.98;;;;;;;9.41;41.29;102026.19;4979516;28;20034;-76
2023/02/02 10:29:42;;;;;;;22.02;2.05;;;;;;;8.44;42.55;102030.16;4980019;28;20026;-76
2023/02/02 10:32:40;;;;;;;19.55;2.00;;;;;;;8.67;42.25;102039.44;4980707;28;20220;-76
2023/02/02 10:35:05;;;;;;;23.65;2.47;;;;;;;8.62;41.95;102043.84;4980465;28;20084;-77
2023/02/02 10:37:57;;;;;;;8.25;1.48;;;;;;;8.32;42.10;102043.34;4978602;28;20049;-76
2023/02/02 10:40:42;;;;;;;23.25;1.73;;;;;;;8.61;42.67;102039.53;4979424;28;20034;-78
2023/02/02 10:43:48;;;;;;;8.93;1.55;;;;;;;8.81;42.16;102041.88;4962965;28;20124;-77
2023/02/02 10:46:32;;;;;;;9.63;2.08;;;;;;;9.27;40.33;102038.59;4980584;28;20044;-78
2023/02/02 10:49:21;;;;;;;11.10;1.40;;;;;;;9.24;41.15;102038.66;4979213;28;20097;-76
2023/02/02 10:52:12;;;;;;;12.80;1.67;;;;;;;9.39;40.40;102043.63;4969866;28;20121;-77
2023/02/02 10:55:13;;;;;;;12.93;1.00;;;;;;;8.09;41.75;102065.31;4975565;28;20133;-77
2023/02/02 10:57:48;;;;;;;12.40;1.35;;;;;;;7.81;42.84;102058.66;4979766;28;20053;-76
2023/02/02 11:00:20;;;;;;;14.85;1.05;;;;;;;7.11;44.20;102064.38;4980776;28;20030;-77
2023/02/02 11:02:47;;;;;;;12.57;1.30;;;;;;;6.62;44.81;102066.34;4978303;28;20050;-76
2023/02/02 11:08:11;;;;;;;15.27;1.60;;;;;;;7.28;44.48;102068.59;4982175;28;20573;-75
2023/02/02 11:10:36;;;;;;;10.80;0.95;;;;;;;7.11;44.50;102076.50;4978192;28;20034;-76
2023/02/02 11:13:04;;;;;;;12.95;1.10;;;;;;;6.77;45.17;102083.63;4979443;28;20054;-77
2023/02/02 11:15:30;;;;;;;9.27;1.10;;;;;;;6.50;44.49;102073.31;4982076;28;20120;-77
2023/02/02 11:18:13;;;;;;;13.43;1.25;;;;;;;6.61;45.44;102077.63;4981668;28;20089;-77
2023/02/02 11:20:39;;;;;;;8.85;1.20;;;;;;;6.76;45.87;102081.91;4980000;28;20085;-76
2023/02/02 11:23:06;;;;;;;12.82;1.63;;;;;;;7.21;44.87;102093.75;4980204;28;20828;-77
2023/02/02 11:25:33;;;;;;;5.72;1.02;;;;;;;7.23;44.14;102085.97;4978910;28;20030;-76
2023/02/02 11:28:17;;;;;;;12.98;1.52;;;;;;;7.25;44.35;102092.03;4963396;28;20042;-77
2023/02/02 11:30:47;;;;;;;18.25;1.45;;;;;;;6.98;44.04;102090.47;4980760;28;20097;-77
2023/02/02 11:33:25;;;;;;;15.43;1.58;;;;;;;7.19;44.07;102082.50;4981252;28;20770;-76
2023/02/02 11:36:00;;;;;;;12.13;0.88;;;;;;;7.27;44.13;102079.88;4980465;28;20049;-76
2023/02/02 11:38:26;;;;;;;8.13;1.13;;;;;;;7.53;44.14;102075.34;4982468;28;20381;-79
2023/02/02 11:40:59;;;;;;;14.23;1.50;;;;;;;7.71;43.38;102086.47;4981875;28;20030;-76
2023/02/02 11:43:40;;;;;;;4.93;1.08;;;;;;;7.82;43.75;102083.78;4980393;28;20792;-76
2023/02/02 11:46:23;;;;;;;6.18;0.80;;;;;;;7.54;43.70;102081.41;4982559;28;20038;-75
2023/02/02 11:48:58;;;;;;;14.75;1.08;;;;;;;7.36;44.14;102082.41;4979342;28;20500;-76
2023/02/02 11:51:25;;;;;;;18.75;1.23;;;;;;;7.52;43.89;102080.56;4961463;28;20045;-77
2023/02/02 11:54:04;;;;;;;10.50;1.27;;;;;;;8.01;43.57;102079.28;4977005;28;20046;-78